Sturgeon Bay, WI (54235)

7:31 AM CST on February 11, 2016 (GMT -0600)
Leif Everson Observatory | | Change Station
CLOSE
Current Station
Personal Weather Station
Location: Sturgeon Bay, WI
Elevation: 636 ft
Nearby Weather Stations

Elev 636 ft 44.83 °N, 87.34 °W | Updated 9 minutes ago

Clear
Clear
3.5 °F
Feels Like 4 °F
N
3.0
Wind Variable Wind from NW
Gusts 7.0 mph

Today
High -- | Low -- °F
--% Chance of Precip.
Yesterday
High -- | Low -- °F
Precip. -- in
Pressure 30.24 in
Visibility -9999.0 miles
Clouds Clear
Windchill 4 °F
Dew Point -3 °F
Humidity 74%
Rainfall 0.00 in
Snow Depth Not available.
6:56 AM 5:11 PM
Waxing Crescent, 12% visible
METAR KSUE 111315Z AUTO 27004KT CLR M17/M21 A3024 RMK AO1
Pressure 30.24 in
Visibility -9999.0 miles
Clouds Clear
Windchill 4 °F
Dew Point -3 °F
Humidity 74%
Rainfall 0.00 in
Snow Depth Not available.
6:56 AM 5:11 PM
Waxing Crescent, 12% visible
METAR KSUE 111315Z AUTO 27004KT CLR M17/M21 A3024 RMK AO1

10-Day Weather Forecast

Almanac

Astronomy

Feb. 11, 2016 Rise Set
Actual Time
Civil Twilight
Nautical Twilight
Astronomical Twilight
Moon
Length of Visible Light
Length of Day
Tomorrow will be .
, % of the Moon is Illuminated

Today's Extremes

State Highs State Lows

Community

WunderPhotos

Upload Photos

1,892,045 photos uploaded!

WunderBlog® & News

Nearby

Air Quality

  Air Quality AQ Index Pollutant
Not available.

Snow Depth

Station Depth Elevation

Earthquake Activity

City Distance Mag. Time & Date
Minimum magnitude displayed is 2.5.

Coastal Water Temperatures

Place Temperature

Stations

Nearby Weather Stations

Station Location Temp. Windchill Dew Point Humidity Wind Precip. Elev Updated Type
                   

Watches & Warnings

There are currently no watches in effect.